Time;durP1;ratioP1;P1;durP2;ratioP2;P2;SDS_P1;SDS_P2;PMS_P1;PMS_P2;Temp;Humidity;BMP_temperature;BMP_pressure;BME280_temperature;BME280_humidity;BME280_pressure;Samples;Min_cycle;Max_cycle;Signal;HPM_P1;HPM_P2
2024/03/04 00:01:27;;;;;;;17.80;10.10;;;;;;;1.14;78.99;99599.94;107552;1251;73875;-40
2024/03/04 00:03:55;;;;;;;15.50;9.60;;;;;;;1.15;79.00;99599.97;107573;1253;67559;-40
2024/03/04 00:06:23;;;;;;;18.60;10.10;;;;;;;1.17;78.92;99601.21;107559;1252;72728;-40
2024/03/04 00:08:53;;;;;;;19.80;9.70;;;;;;;1.21;78.70;99598.70;107612;1257;60177;-40
2024/03/04 00:11:21;;;;;;;16.50;9.90;;;;;;;1.22;78.86;99599.96;107625;1253;60384;-40
2024/03/04 00:13:48;;;;;;;20.40;10.70;;;;;;;1.23;78.80;99599.84;107649;1253;73835;-40
2024/03/04 00:16:16;;;;;;;17.50;10.50;;;;;;;1.23;78.71;99595.57;107586;1252;67891;-40
2024/03/04 00:18:43;;;;;;;15.10;9.30;;;;;;;1.24;78.72;99595.45;107658;1252;72688;-40
2024/03/04 00:21:11;;;;;;;18.20;9.80;;;;;;;1.26;78.36;99590.35;107618;1256;59340;-40
2024/03/04 00:23:38;;;;;;;17.60;10.70;;;;;;;1.26;78.51;99585.86;107627;1253;60344;-40
2024/03/04 00:26:06;;;;;;;17.30;9.90;;;;;;;1.22;78.40;99578.13;107633;1253;73858;-40
2024/03/04 00:28:34;;;;;;;16.30;9.60;;;;;;;1.18;78.33;99575.24;107693;1253;67744;-40
2024/03/04 00:31:03;;;;;;;16.50;9.50;;;;;;;1.17;78.46;99576.48;107622;1253;72676;-40
2024/03/04 00:33:31;;;;;;;15.80;9.00;;;;;;;1.18;78.29;99577.60;107620;1253;60409;-40
2024/03/04 00:35:59;;;;;;;15.90;9.90;;;;;;;1.17;78.27;99580.00;107631;1253;60445;-40
2024/03/04 00:38:27;;;;;;;20.70;9.70;;;;;;;1.14;78.06;99582.89;107646;1252;73875;-40
2024/03/04 00:40:54;;;;;;;17.40;9.30;;;;;;;1.14;78.36;99578.59;107578;1252;67538;-40
2024/03/04 00:43:22;;;;;;;18.00;9.80;;;;;;;1.14;78.24;99584.50;107560;1252;72739;-40
2024/03/04 00:45:50;;;;;;;17.80;9.40;;;;;;;1.18;78.18;99586.63;107561;1253;60903;-39
2024/03/04 00:48:17;;;;;;;17.20;9.00;;;;;;;1.21;78.07;99586.41;107588;1253;60428;-40
2024/03/04 00:50:45;;;;;;;16.00;9.80;;;;;;;1.18;77.91;99582.84;107619;1251;74318;-39
2024/03/04 00:53:13;;;;;;;22.30;11.40;;;;;;;1.12;77.86;99576.20;107660;1252;68013;-39
2024/03/04 00:55:40;;;;;;;20.20;9.70;;;;;;;1.17;78.07;99583.54;107601;1252;72650;-40
2024/03/04 00:58:09;;;;;;;14.40;9.30;;;;;;;1.18;77.89;99579.73;107593;1253;60450;-40
2024/03/04 01:00:37;;;;;;;16.60;9.40;;;;;;;1.17;77.71;99578.09;107639;1251;60511;-39
2024/03/04 01:03:05;;;;;;;16.10;10.50;;;;;;;1.16;77.98;99579.02;107648;1253;73854;-40
2024/03/04 01:05:33;;;;;;;19.20;10.20;;;;;;;1.12;78.01;99580.10;107586;1252;67924;-40
2024/03/04 01:08:01;;;;;;;15.40;9.10;;;;;;;1.11;78.21;99582.31;107583;1252;72487;-39
2024/03/04 01:10:28;;;;;;;17.40;9.40;;;;;;;1.13;78.04;99579.66;107601;1253;60877;-39
2024/03/04 01:12:56;;;;;;;19.70;9.50;;;;;;;1.15;77.93;99579.64;107601;1253;60451;-40
2024/03/04 01:15:25;;;;;;;18.20;9.80;;;;;;;1.15;78.07;99583.61;107658;1253;73815;-40
2024/03/04 01:17:53;;;;;;;17.70;10.50;;;;;;;1.17;78.28;99587.23;107595;1253;67880;-39
2024/03/04 01:20:21;;;;;;;17.30;9.60;;;;;;;1.18;78.27;99582.83;107708;1253;72718;-39
2024/03/04 01:22:49;;;;;;;14.20;9.70;;;;;;;1.23;78.15;99584.71;107632;1253;60903;-40
2024/03/04 01:25:17;;;;;;;15.30;8.70;;;;;;;1.28;77.82;99584.54;107736;1252;60328;-40
2024/03/04 01:27:45;;;;;;;17.20;9.30;;;;;;;1.32;77.76;99581.17;107649;1254;73847;-39
2024/03/04 01:30:13;;;;;;;16.80;10.70;;;;;;;1.34;77.53;99582.64;107668;1256;66339;-40
2024/03/04 01:32:42;;;;;;;15.40;9.70;;;;;;;1.30;77.41;99584.89;107629;1252;72795;-40
2024/03/04 01:35:15;;;;;;;16.10;7.60;;;;;;;1.27;77.46;99589.24;107576;1253;60502;-39
2024/03/04 01:37:43;;;;;;;16.10;9.00;;;;;;;1.29;77.39;99584.21;107664;1256;60445;-40
2024/03/04 01:40:13;;;;;;;16.70;9.80;;;;;;;1.30;77.19;99583.23;107581;1252;73855;-40
2024/03/04 01:42:44;;;;;;;17.10;9.70;;;;;;;1.29;77.10;99586.14;107554;1253;67661;-40
2024/03/04 01:45:31;;;;;;;17.00;9.90;;;;;;;1.25;77.15;99586.95;107410;1254;72709;-39
2024/03/04 01:48:03;;;;;;;14.80;9.50;;;;;;;1.23;77.27;99589.48;107547;1253;60873;-40
2024/03/04 01:50:36;;;;;;;19.40;10.30;;;;;;;1.22;77.07;99589.29;107538;1258;59307;-40
2024/03/04 01:53:04;;;;;;;14.30;9.30;;;;;;;1.22;77.09;99588.00;107634;1253;73837;-40
2024/03/04 01:55:40;;;;;;;18.90;10.60;;;;;;;1.20;77.10;99589.16;107648;1253;66599;-40
2024/03/04 01:58:15;;;;;;;17.00;10.50;;;;;;;1.15;77.00;99587.11;107550;1255;71433;-40
2024/03/04 02:00:44;;;;;;;16.90;10.00;;;;;;;1.11;77.27;99587.19;107356;1253;60366;-39
2024/03/04 02:03:13;;;;;;;15.00;9.60;;;;;;;1.10;77.19;99587.30;107579;1252;60541;-39
2024/03/04 02:05:40;;;;;;;15.70;9.80;;;;;;;1.11;77.25;99589.85;107681;1253;73859;-40
2024/03/04 02:08:08;;;;;;;18.30;9.70;;;;;;;1.09;77.27;99584.22;107569;1252;66623;-40
2024/03/04 02:10:35;;;;;;;15.20;10.10;;;;;;;1.05;77.21;99585.70;107636;1252;72657;-39
2024/03/04 02:13:04;;;;;;;18.60;10.20;;;;;;;1.00;77.47;99586.75;107639;1253;60501;-40
2024/03/04 02:15:36;;;;;;;17.30;9.40;;;;;;;0.95;77.39;99583.52;107611;1253;60371;-40
2024/03/04 02:18:05;;;;;;;18.00;9.90;;;;;;;0.95;77.44;99584.91;107453;1253;72843;-40
2024/03/04 02:20:41;;;;;;;15.40;9.60;;;;;;;0.95;77.62;99586.77;107587;1257;67631;-40
2024/03/04 02:23:11;;;;;;;26.50;10.70;;;;;;;0.94;77.35;99589.77;107624;1252;73277;-40
2024/03/04 02:25:49;;;;;;;21.70;10.20;;;;;;;0.89;77.58;99591.83;106108;1253;1003782;-40
2024/03/04 02:28:17;;;;;;;21.60;10.20;;;;;;;0.85;77.64;99595.20;107649;1253;60309;-39
2024/03/04 02:30:45;;;;;;;16.70;9.40;;;;;;;0.85;77.83;99598.45;107632;1253;73886;-38
2024/03/04 02:33:12;;;;;;;17.10;9.90;;;;;;;0.87;77.47;99598.02;107636;1252;67892;-39
2024/03/04 02:35:40;;;;;;;17.40;10.20;;;;;;;0.83;77.50;99596.09;107657;1252;72712;-39
2024/03/04 02:38:08;;;;;;;17.30;10.40;;;;;;;0.87;77.54;99600.09;107647;1253;60373;-39
2024/03/04 02:40:35;;;;;;;18.40;10.10;;;;;;;0.83;77.61;99596.24;107703;1253;60319;-39
2024/03/04 02:43:03;;;;;;;17.70;9.50;;;;;;;0.80;77.72;99598.73;107656;1256;73853;-39
2024/03/04 02:45:31;;;;;;;24.00;9.80;;;;;;;0.78;77.56;99601.88;107622;1253;66956;-38
2024/03/04 02:47:59;;;;;;;16.00;9.40;;;;;;;0.76;77.62;99600.34;107533;1253;72670;-39
2024/03/04 02:50:27;;;;;;;20.70;10.30;;;;;;;0.77;77.59;99609.78;107580;1253;60923;-39
2024/03/04 02:52:54;;;;;;;19.30;10.00;;;;;;;0.76;77.61;99606.60;106116;1251;1005074;-39
2024/03/04 02:55:22;;;;;;;19.50;10.70;;;;;;;0.74;77.60;99605.86;107634;1253;72873;-39
2024/03/04 02:57:49;;;;;;;12.90;9.30;;;;;;;0.72;77.56;99606.55;107628;1252;67778;-39
2024/03/04 03:00:17;;;;;;;19.00;10.40;;;;;;;0.69;77.62;99606.10;107594;1257;72695;-39
2024/03/04 03:02:45;;;;;;;16.70;9.90;;;;;;;0.68;77.54;99607.61;107678;1253;60425;-39
2024/03/04 03:05:13;;;;;;;19.40;10.20;;;;;;;0.68;77.70;99607.23;107659;1253;60494;-39
2024/03/04 03:07:40;;;;;;;19.20;10.60;;;;;;;0.66;77.78;99603.91;107639;1252;73822;-39
2024/03/04 03:10:09;;;;;;;17.80;10.30;;;;;;;0.62;77.67;99604.11;107646;1253;67590;-39
2024/03/04 03:12:38;;;;;;;18.80;11.00;;;;;;;0.60;77.86;99599.55;107680;1253;71413;-39
2024/03/04 03:15:06;;;;;;;13.90;8.60;;;;;;;0.60;77.87;99601.52;107615;1252;60161;-39
2024/03/04 03:17:37;;;;;;;19.00;10.20;;;;;;;0.57;77.82;99599.55;107608;1253;60423;-39
2024/03/04 03:20:16;;;;;;;19.00;10.80;;;;;;;0.55;77.94;99601.28;107625;1253;73871;-39
2024/03/04 03:22:51;;;;;;;22.30;11.70;;;;;;;0.52;78.14;99599.20;107612;1253;67552;-39
2024/03/04 03:25:18;;;;;;;17.90;10.20;;;;;;;0.49;78.14;99602.84;107612;1253;71060;-39
2024/03/04 03:27:46;;;;;;;16.70;10.40;;;;;;;0.49;78.02;99602.63;107607;1254;60913;-39
2024/03/04 03:30:14;;;;;;;15.30;9.80;;;;;;;0.50;78.21;99600.07;107676;1253;60445;-39
2024/03/04 03:32:42;;;;;;;18.80;10.10;;;;;;;0.52;78.18;99600.80;107645;1252;73436;-39
2024/03/04 03:35:10;;;;;;;20.60;10.70;;;;;;;0.52;78.37;99603.46;107628;1253;67546;-39
2024/03/04 03:37:38;;;;;;;18.90;10.60;;;;;;;0.49;78.25;99604.29;107559;1253;71121;-38
2024/03/04 03:40:07;;;;;;;19.40;9.60;;;;;;;0.48;78.26;99603.73;107547;1252;60982;-39
2024/03/04 03:42:35;;;;;;;23.20;10.60;;;;;;;0.51;78.19;99606.84;107488;1253;60307;-39
2024/03/04 03:45:03;;;;;;;16.10;10.00;;;;;;;0.53;78.20;99604.36;107534;1253;72625;-38
2024/03/04 03:47:30;;;;;;;20.80;10.70;;;;;;;0.56;78.25;99606.39;107597;1253;67771;-38
2024/03/04 03:49:58;;;;;;;18.70;9.60;;;;;;;0.61;78.06;99612.30;107574;1253;72651;-39
2024/03/04 03:52:26;;;;;;;17.60;11.10;;;;;;;0.66;77.88;99609.67;107627;1253;60474;-39
2024/03/04 03:54:53;;;;;;;20.50;11.10;;;;;;;0.69;77.83;99605.30;106863;1253;1003650;-39
2024/03/04 03:57:21;;;;;;;17.00;10.60;;;;;;;0.71;77.80;99606.25;107642;1253;73892;-39
2024/03/04 03:59:48;;;;;;;18.60;10.80;;;;;;;0.73;77.45;99603.29;107652;1252;66767;-39
2024/03/04 04:02:16;;;;;;;21.50;10.40;;;;;;;0.78;77.32;99608.38;107607;1253;71434;-39
2024/03/04 04:04:44;;;;;;;19.10;10.60;;;;;;;0.82;77.18;99605.92;107602;1253;60882;-38
2024/03/04 04:07:11;;;;;;;18.60;10.70;;;;;;;0.88;77.06;99608.17;107643;1253;60309;-39
2024/03/04 04:09:39;;;;;;;24.20;10.90;;;;;;;0.90;76.80;99603.03;107530;1252;73937;-39
2024/03/04 04:12:07;;;;;;;19.30;10.80;;;;;;;0.91;76.62;99602.70;107613;1253;66594;-38
2024/03/04 04:14:34;;;;;;;21.40;10.80;;;;;;;0.93;76.71;99607.47;107611;1254;72782;-39
2024/03/04 04:17:02;;;;;;;18.70;10.50;;;;;;;0.97;76.30;99611.27;107580;1256;60554;-39
2024/03/04 04:19:29;;;;;;;18.70;10.60;;;;;;;1.00;76.16;99613.20;107599;1252;60203;-39
2024/03/04 04:21:57;;;;;;;21.40;10.10;;;;;;;0.97;75.94;99605.97;107585;1253;73859;-39
2024/03/04 04:24:25;;;;;;;22.60;11.20;;;;;;;1.06;75.79;99617.70;107654;1253;66425;-39
2024/03/04 04:26:52;;;;;;;17.80;11.30;;;;;;;1.05;75.67;99618.29;107678;1253;72684;-39
2024/03/04 04:29:20;;;;;;;22.40;11.50;;;;;;;1.04;75.61;99618.73;107652;1257;60348;-38
2024/03/04 04:31:47;;;;;;;21.40;11.30;;;;;;;1.01;75.42;99620.32;107656;1252;60041;-38
2024/03/04 04:34:15;;;;;;;19.20;11.10;;;;;;;1.02;75.39;99622.75;107663;1256;73869;-39
2024/03/04 04:36:50;;;;;;;17.40;10.40;;;;;;;1.05;75.60;99625.06;107654;1253;67658;-38
2024/03/04 04:39:17;;;;;;;22.40;11.70;;;;;;;1.09;75.37;99628.31;107645;1253;72667;-38
2024/03/04 04:41:45;;;;;;;26.90;11.40;;;;;;;1.11;75.37;99631.81;107550;1253;60742;-39
2024/03/04 04:44:12;;;;;;;23.90;12.20;;;;;;;1.13;75.34;99632.21;107519;1253;60329;-39
2024/03/04 04:46:40;;;;;;;21.00;11.80;;;;;;;1.15;75.30;99633.79;107549;1257;73820;-38
2024/03/04 04:49:08;;;;;;;26.50;12.00;;;;;;;1.18;75.31;99633.94;107527;1253;67572;-38
2024/03/04 04:51:35;;;;;;;18.80;11.20;;;;;;;1.24;75.11;99635.81;107594;1253;72641;-39
2024/03/04 04:54:03;;;;;;;20.10;11.40;;;;;;;1.29;74.99;99636.17;107632;1253;60884;-39
2024/03/04 04:56:30;;;;;;;19.70;11.70;;;;;;;1.32;75.05;99633.98;107655;1253;60288;-38
2024/03/04 04:58:58;;;;;;;21.20;12.00;;;;;;;1.32;74.94;99632.96;107630;1253;73759;-39
2024/03/04 05:01:26;;;;;;;23.10;11.60;;;;;;;1.34;75.07;99633.16;107661;1253;67912;-39
2024/03/04 05:03:54;;;;;;;18.30;10.90;;;;;;;1.39;74.96;99631.54;107678;1253;72693;-39
2024/03/04 05:06:42;;;;;;;19.20;11.80;;;;;;;1.46;74.63;99634.64;107679;1254;60909;-39
2024/03/04 05:09:10;;;;;;;23.60;11.20;;;;;;;1.52;74.38;99636.88;107651;1253;60045;-39
2024/03/04 05:11:38;;;;;;;19.90;10.80;;;;;;;1.53;74.27;99637.86;107613;1252;74289;-39
2024/03/04 05:14:11;;;;;;;21.90;11.30;;;;;;;1.57;74.10;99636.90;107655;1253;66313;-39
2024/03/04 05:16:38;;;;;;;24.30;11.80;;;;;;;1.60;74.00;99639.52;107611;1252;73134;-39
2024/03/04 05:19:06;;;;;;;18.60;11.10;;;;;;;1.64;73.79;99637.16;107643;1253;60388;-39
2024/03/04 05:21:33;;;;;;;21.10;11.50;;;;;;;1.68;73.71;99632.69;107634;1253;61081;-39
2024/03/04 05:24:01;;;;;;;18.40;11.20;;;;;;;1.71;73.49;99635.20;107617;1253;72652;-39
2024/03/04 05:26:29;;;;;;;20.70;11.20;;;;;;;1.72;73.51;99636.64;107645;1253;68083;-39
2024/03/04 05:28:56;;;;;;;24.50;11.60;;;;;;;1.75;73.69;99641.54;107617;1253;72736;-39
2024/03/04 05:31:25;;;;;;;23.60;11.70;;;;;;;1.79;73.60;99642.30;107527;1253;60402;-39
2024/03/04 05:33:53;;;;;;;22.20;10.60;;;;;;;1.85;73.16;99647.10;107553;1253;60416;-39
2024/03/04 05:36:21;;;;;;;23.20;10.80;;;;;;;1.93;73.00;99646.04;107581;1251;72476;-39
2024/03/04 05:38:48;;;;;;;23.10;12.50;;;;;;;2.00;72.91;99641.75;107640;1253;67906;-39
2024/03/04 05:41:16;;;;;;;21.60;12.30;;;;;;;2.02;72.47;99639.77;107649;1253;72686;-39
2024/03/04 05:43:44;;;;;;;24.40;12.80;;;;;;;2.03;72.27;99641.89;107668;1252;60425;-40
2024/03/04 05:46:12;;;;;;;22.20;11.90;;;;;;;2.04;72.04;99642.73;107446;1253;197742;-39
2024/03/04 05:49:28;;;;;;;22.00;12.30;;;;;;;2.09;71.86;99642.05;104201;1290;600789;-39
2024/03/04 05:51:58;;;;;;;27.20;13.00;;;;;;;2.12;71.72;99644.98;106703;1266;59267;-39
2024/03/04 05:54:27;;;;;;;20.80;12.50;;;;;;;2.14;71.79;99643.61;106608;1265;60028;-39
2024/03/04 05:56:55;;;;;;;23.60;13.10;;;;;;;2.16;71.56;99641.13;106656;1266;72245;-39
2024/03/04 05:59:22;;;;;;;24.90;13.20;;;;;;;2.15;71.38;99641.08;106766;1266;65818;-39
2024/03/04 06:01:50;;;;;;;21.50;13.10;;;;;;;2.15;71.21;99643.81;106736;1266;72695;-39
2024/03/04 06:04:18;;;;;;;20.60;12.90;;;;;;;2.20;71.31;99640.84;106670;1263;191355;-39
2024/03/04 06:06:46;;;;;;;26.50;12.90;;;;;;;2.25;71.19;99644.05;106800;1263;60448;-39
2024/03/04 06:09:15;;;;;;;22.70;13.20;;;;;;;2.26;71.12;99636.88;106813;1263;70734;-38
2024/03/04 06:11:43;;;;;;;27.50;12.50;;;;;;;2.25;71.14;99634.05;106805;1263;67729;-39
2024/03/04 06:14:11;;;;;;;22.10;13.10;;;;;;;2.26;71.15;99635.58;106812;1263;72698;-38
2024/03/04 06:16:38;;;;;;;21.80;12.70;;;;;;;2.29;71.03;99631.52;106807;1263;59676;-39
2024/03/04 06:19:06;;;;;;;22.40;12.50;;;;;;;2.31;70.71;99631.59;106820;1263;60203;-39
2024/03/04 06:21:35;;;;;;;22.00;13.10;;;;;;;2.31;70.64;99632.96;106841;1263;73030;-39
2024/03/04 06:24:03;;;;;;;16.50;10.20;;;;;;;2.31;70.78;99633.34;106761;1263;67901;-40
2024/03/04 06:26:31;;;;;;;22.70;12.60;;;;;;;2.31;70.58;99638.16;106858;1263;72354;-40
2024/03/04 06:28:58;;;;;;;24.80;12.50;;;;;;;2.32;70.41;99640.48;106793;1263;59592;-40
2024/03/04 06:31:26;;;;;;;21.10;12.20;;;;;;;2.36;70.52;99640.73;106782;1263;60103;-40
2024/03/04 06:33:54;;;;;;;22.90;12.40;;;;;;;2.38;70.51;99641.00;106719;1263;73041;-40
2024/03/04 06:36:25;;;;;;;24.00;13.20;;;;;;;2.38;70.19;99651.33;106741;1267;68143;-40
2024/03/04 06:38:52;;;;;;;26.50;13.60;;;;;;;2.41;70.39;99657.28;107594;1251;72724;-40
2024/03/04 06:41:20;;;;;;;25.80;14.30;;;;;;;2.46;70.36;99660.23;107578;1253;61008;-40
2024/03/04 06:43:47;;;;;;;22.80;12.90;;;;;;;2.54;70.26;99658.18;107595;1253;60092;-40
2024/03/04 06:46:15;;;;;;;22.30;13.20;;;;;;;2.60;69.93;99661.55;107574;1253;73043;-40
2024/03/04 06:48:43;;;;;;;24.00;13.50;;;;;;;2.66;69.93;99661.16;107576;1252;67730;-40
2024/03/04 06:51:11;;;;;;;21.90;13.60;;;;;;;2.71;69.42;99666.41;107701;1251;73092;-40
2024/03/04 06:53:39;;;;;;;23.20;13.00;;;;;;;2.74;69.28;99667.14;107655;1253;60300;-39
2024/03/04 06:56:09;;;;;;;26.00;12.70;;;;;;;2.80;69.04;99667.07;107672;1251;60021;-39
2024/03/04 06:58:36;;;;;;;24.00;12.70;;;;;;;2.89;69.03;99665.10;107719;1251;71749;-40
2024/03/04 07:01:04;;;;;;;22.50;13.50;;;;;;;2.99;68.70;99659.91;107691;1253;67516;-40
2024/03/04 07:03:32;;;;;;;24.60;14.00;;;;;;;3.07;68.78;99660.14;107662;1254;71623;-39
2024/03/04 07:06:00;;;;;;;24.70;13.50;;;;;;;3.13;68.18;99655.46;107647;1253;59746;-39
2024/03/04 07:08:27;;;;;;;25.80;14.40;;;;;;;3.15;67.89;99654.19;107675;1251;59985;-40
2024/03/04 07:10:59;;;;;;;27.90;14.30;;;;;;;3.11;67.74;99648.54;107665;1253;73157;-39
2024/03/04 07:13:27;;;;;;;28.30;14.60;;;;;;;3.19;67.80;99660.59;107627;1253;66407;-39
2024/03/04 07:15:54;;;;;;;27.60;13.80;;;;;;;3.26;67.73;99661.48;107622;1253;72808;-40
2024/03/04 07:18:22;;;;;;;22.60;13.30;;;;;;;3.33;67.26;99656.02;107618;1253;59562;-40
2024/03/04 07:20:50;;;;;;;28.60;13.20;;;;;;;3.36;66.88;99655.40;107550;1252;59370;-39
2024/03/04 07:23:17;;;;;;;31.40;14.50;;;;;;;3.39;66.93;99655.35;107618;1252;71580;-39
2024/03/04 07:25:45;;;;;;;24.80;13.70;;;;;;;3.43;66.86;99653.48;107571;1256;66366;-40
2024/03/04 07:28:14;;;;;;;24.80;14.90;;;;;;;3.45;66.56;99655.45;107562;1253;74896;-39
2024/03/04 07:30:41;;;;;;;31.20;15.20;;;;;;;3.46;66.43;99656.50;107583;1253;59637;-39
2024/03/04 07:33:11;;;;;;;24.70;14.10;;;;;;;3.47;66.27;99659.85;107652;1253;59512;-40
2024/03/04 07:35:40;;;;;;;23.60;13.90;;;;;;;3.54;66.27;99664.52;107613;1253;73304;-40
2024/03/04 07:38:08;;;;;;;23.30;13.00;;;;;;;3.58;66.28;99665.01;107634;1253;67016;-40
2024/03/04 07:40:36;;;;;;;25.40;14.90;;;;;;;3.47;66.53;99636.70;107580;1253;72374;-40
2024/03/04 07:43:04;;;;;;;30.10;14.80;;;;;;;3.73;66.30;99664.47;107602;1252;59627;-40
2024/03/04 07:45:31;;;;;;;29.40;16.10;;;;;;;3.79;66.15;99668.23;107630;1253;59612;-40
2024/03/04 07:47:59;;;;;;;25.70;15.30;;;;;;;3.87;66.32;99667.23;107632;1254;73054;-40
2024/03/04 07:50:26;;;;;;;32.10;15.00;;;;;;;3.96;66.08;99662.60;107597;1253;67888;-40
2024/03/04 07:52:54;;;;;;;26.70;14.90;;;;;;;4.06;65.63;99657.41;107427;1254;71623;-39
2024/03/04 07:55:22;;;;;;;27.40;14.80;;;;;;;4.16;65.54;99658.38;107648;1254;61460;-39
2024/03/04 07:57:50;;;;;;;30.00;15.00;;;;;;;4.25;65.01;99656.39;107540;1255;59759;-40
2024/03/04 08:00:18;;;;;;;27.80;15.70;;;;;;;4.33;64.74;99657.44;107564;1253;71865;-39
2024/03/04 08:02:46;;;;;;;29.20;16.80;;;;;;;4.43;64.38;99656.46;107685;1253;67929;-39
2024/03/04 08:05:13;;;;;;;28.30;15.40;;;;;;;4.52;64.02;99658.00;107683;1253;73075;-40
2024/03/04 08:07:41;;;;;;;26.50;15.80;;;;;;;4.63;63.57;99651.07;107627;1257;60244;-40
2024/03/04 08:10:09;;;;;;;27.50;15.60;;;;;;;4.72;63.44;99651.09;107700;1253;59500;-39
2024/03/04 08:12:37;;;;;;;26.70;15.40;;;;;;;4.81;62.93;99653.45;107666;1253;73394;-39
2024/03/04 08:15:05;;;;;;;23.60;14.60;;;;;;;4.92;62.56;99654.13;107642;1253;67902;-40
2024/03/04 08:17:33;;;;;;;28.40;16.20;;;;;;;5.02;62.03;99650.75;107673;1253;72805;-39
2024/03/04 08:20:03;;;;;;;32.10;17.30;;;;;;;5.11;61.56;99650.95;107765;1252;59516;-39
2024/03/04 08:22:40;;;;;;;35.40;17.50;;;;;;;5.21;61.46;99648.90;107645;1253;59666;-40
2024/03/04 08:25:08;;;;;;;30.60;16.90;;;;;;;5.34;60.95;99641.45;101619;1253;1018602;-40
2024/03/04 08:27:36;;;;;;;27.50;17.40;;;;;;;5.43;60.47;99637.93;107585;1257;67121;-39
2024/03/04 08:30:05;;;;;;;31.40;17.10;;;;;;;5.54;60.63;99642.58;107564;1253;73042;-39
2024/03/04 08:32:32;;;;;;;30.90;16.70;;;;;;;5.73;60.23;99644.64;107620;1253;59714;-40
2024/03/04 08:35:00;;;;;;;27.10;17.00;;;;;;;5.96;59.69;99640.77;107549;1256;60137;-39
2024/03/04 08:37:28;;;;;;;26.90;16.30;;;;;;;6.20;58.92;99640.83;107592;1253;71188;-39
2024/03/04 08:39:59;;;;;;;26.20;16.80;;;;;;;6.46;58.01;99638.08;107574;1253;67032;-40
2024/03/04 08:42:27;;;;;;;29.00;17.50;;;;;;;6.69;57.25;99633.89;107673;1254;74811;-39
2024/03/04 08:44:54;;;;;;;26.60;16.60;;;;;;;6.97;56.77;99639.44;107619;1252;59759;-39
2024/03/04 08:47:22;;;;;;;27.80;16.70;;;;;;;7.22;56.18;99641.04;107732;1254;60159;-39
2024/03/04 08:49:50;;;;;;;25.10;15.70;;;;;;;7.48;54.91;99640.13;107712;1253;71556;-40
2024/03/04 08:52:17;;;;;;;26.30;15.20;;;;;;;7.67;53.54;99634.25;107723;1253;68218;-39
2024/03/04 08:54:45;;;;;;;31.10;17.30;;;;;;;7.84;53.01;99634.14;107702;1256;72261;-39
2024/03/04 08:57:13;;;;;;;23.50;14.90;;;;;;;8.00;52.81;99634.98;107690;1253;59617;-39
2024/03/04 08:59:40;;;;;;;24.30;15.80;;;;;;;8.14;51.71;99632.45;107647;1253;59580;-40
2024/03/04 09:02:10;;;;;;;23.50;15.00;;;;;;;8.24;51.61;99627.13;107727;1253;73482;-39
2024/03/04 09:04:38;;;;;;;25.90;15.80;;;;;;;8.33;51.12;99628.07;107697;1253;66811;-39
2024/03/04 09:07:05;;;;;;;27.10;15.50;;;;;;;8.41;50.58;99634.70;105405;1256;1003862;-39
2024/03/04 09:09:35;;;;;;;27.50;15.30;;;;;;;8.46;50.62;99632.67;107680;1253;59617;-39
2024/03/04 09:12:03;;;;;;;31.80;15.90;;;;;;;8.50;50.51;99627.68;107630;1253;59524;-39
2024/03/04 09:14:31;;;;;;;25.00;14.90;;;;;;;8.57;50.33;99627.90;107654;1251;72466;-40
2024/03/04 09:16:59;;;;;;;25.50;15.00;;;;;;;8.70;50.44;99622.20;107702;1256;68203;-40
2024/03/04 09:19:26;;;;;;;27.70;15.60;;;;;;;8.83;49.77;99621.27;107670;1256;72944;-39
2024/03/04 09:21:54;;;;;;;22.90;14.80;;;;;;;8.91;49.32;99620.83;107712;1254;59608;-39
2024/03/04 09:24:22;;;;;;;28.80;15.40;;;;;;;8.97;49.65;99618.45;107724;1253;60260;-40
2024/03/04 09:26:50;;;;;;;21.10;14.60;;;;;;;9.12;49.02;99624.76;107735;1253;71904;-39
2024/03/04 09:29:17;;;;;;;22.30;14.90;;;;;;;9.24;49.05;99614.97;107708;1253;68350;-39
2024/03/04 09:31:45;;;;;;;25.50;15.90;;;;;;;9.38;48.44;99618.78;107630;1253;71522;-40
2024/03/04 09:34:13;;;;;;;27.30;15.80;;;;;;;9.51;48.42;99621.08;107682;1253;59653;-39
2024/03/04 09:36:40;;;;;;;25.30;14.50;;;;;;;9.57;47.93;99621.14;107565;1253;61264;-39
2024/03/04 09:39:08;;;;;;;23.50;14.80;;;;;;;9.61;47.91;99620.63;107570;1253;73201;-39
2024/03/04 09:41:40;;;;;;;23.80;14.30;;;;;;;9.69;47.57;99616.03;107559;1256;67955;-40
2024/03/04 09:44:08;;;;;;;21.10;15.30;;;;;;;9.77;48.09;99617.27;107666;1253;71465;-40
2024/03/04 09:46:37;;;;;;;22.00;14.90;;;;;;;9.96;47.44;99615.58;107598;1253;60139;-39
2024/03/04 09:49:05;;;;;;;25.40;15.30;;;;;;;10.12;47.00;99612.18;107705;1253;60396;-40
2024/03/04 09:51:33;;;;;;;24.70;14.60;;;;;;;10.22;46.78;99607.65;107450;1257;71915;-40
2024/03/04 09:54:01;;;;;;;22.80;14.40;;;;;;;10.32;46.80;99608.69;107327;1253;66810;-39
2024/03/04 09:56:29;;;;;;;21.30;14.50;;;;;;;10.43;45.95;99606.85;107606;1251;71492;-39
2024/03/04 09:58:56;;;;;;;24.30;14.50;;;;;;;10.50;46.04;99601.27;107626;1253;60435;-40
2024/03/04 10:01:24;;;;;;;22.60;13.70;;;;;;;10.52;45.82;99601.23;107413;1253;62248;-40
2024/03/04 10:03:52;;;;;;;21.40;14.10;;;;;;;10.57;45.83;99592.29;107694;1256;73121;-40
2024/03/04 10:06:20;;;;;;;21.60;14.40;;;;;;;10.65;46.08;99595.48;107518;1256;67777;-40
2024/03/04 10:08:47;;;;;;;23.00;12.80;;;;;;;10.72;45.40;99599.05;107514;1254;72894;-40
2024/03/04 10:11:15;;;;;;;21.50;13.20;;;;;;;10.76;45.59;99594.35;107684;1256;60398;-40
2024/03/04 10:13:43;;;;;;;26.20;13.70;;;;;;;10.85;45.10;99595.48;107656;1254;60842;-40
2024/03/04 10:16:15;;;;;;;24.60;12.90;;;;;;;10.91;44.48;99593.11;107489;1253;73915;-40
2024/03/04 10:19:01;;;;;;;19.50;11.60;;;;;;;10.84;44.65;99588.48;107702;1254;67851;-40
2024/03/04 10:21:33;;;;;;;18.30;12.40;;;;;;;10.69;44.34;99586.36;107510;1254;74907;-40
2024/03/04 10:24:08;;;;;;;25.00;12.20;;;;;;;10.53;44.83;99592.50;107627;1254;60435;-40
2024/03/04 10:26:40;;;;;;;18.20;12.00;;;;;;;10.34;45.02;99593.88;107670;1253;60441;-40
2024/03/04 10:29:08;;;;;;;21.80;12.80;;;;;;;10.09;45.24;99592.53;107548;1257;72630;-40
2024/03/04 10:31:40;;;;;;;19.40;12.20;;;;;;;9.79;46.07;99586.83;107624;1256;67888;-40
2024/03/04 10:34:08;;;;;;;20.20;11.50;;;;;;;9.54;46.46;99582.16;107671;1256;74851;-40
2024/03/04 10:36:36;;;;;;;19.20;11.90;;;;;;;9.34;46.82;99583.25;106905;1257;1003779;-40
2024/03/04 10:39:05;;;;;;;18.10;11.80;;;;;;;9.10;47.34;99579.19;107639;1252;60149;-40
2024/03/04 10:41:34;;;;;;;23.90;11.80;;;;;;;9.00;47.97;99582.48;107586;1253;73970;-40
2024/03/04 10:44:02;;;;;;;23.00;11.50;;;;;;;8.93;48.29;99582.40;107575;1254;67151;-40
2024/03/04 10:46:30;;;;;;;21.40;12.40;;;;;;;8.97;48.75;99579.27;107550;1254;71528;-40
2024/03/04 10:48:58;;;;;;;18.20;12.10;;;;;;;9.10;48.38;99575.94;107568;1251;60437;-40
2024/03/04 10:51:28;;;;;;;21.30;12.40;;;;;;;9.18;48.57;99573.55;107354;1251;60325;-39
2024/03/04 10:53:59;;;;;;;22.00;13.70;;;;;;;9.25;48.44;99571.10;107647;1257;75081;-40
2024/03/04 10:56:27;;;;;;;21.30;13.30;;;;;;;9.29;48.51;99570.91;107698;1256;69805;-40
2024/03/04 10:58:54;;;;;;;20.50;12.80;;;;;;;9.36;48.59;99569.06;107616;1254;72752;-40
2024/03/04 11:01:25;;;;;;;19.90;12.00;;;;;;;9.46;48.01;99570.96;107531;1254;60508;-40
2024/03/04 11:03:57;;;;;;;24.20;13.80;;;;;;;9.56;47.47;99571.52;107440;1254;60585;-40
2024/03/04 11:06:26;;;;;;;20.00;11.90;;;;;;;9.64;47.37;99569.66;107714;1256;72609;-39
2024/03/04 11:08:56;;;;;;;19.10;11.80;;;;;;;9.70;47.35;99568.18;107691;1257;67294;-39
2024/03/04 11:11:38;;;;;;;22.10;13.00;;;;;;;9.79;47.33;99570.74;107567;1256;72102;-40
2024/03/04 11:14:14;;;;;;;19.70;12.20;;;;;;;9.87;47.25;99568.85;107532;1254;60412;-40
2024/03/04 11:16:47;;;;;;;21.90;12.00;;;;;;;9.91;46.99;99572.60;107630;1256;60459;-40
2024/03/04 11:19:30;;;;;;;16.50;11.80;;;;;;;9.86;47.03;99569.30;107662;1257;72262;-40
2024/03/04 11:21:58;;;;;;;20.90;12.90;;;;;;;9.79;47.35;99570.20;107559;1256;67929;-40
2024/03/04 11:24:27;;;;;;;19.40;13.00;;;;;;;9.71;47.71;99565.35;107370;1254;73274;-40